Arties, Catalunya

latitud = 42° 42' 01''N | longitud = 00° 52' 37''E
1161 metros sobre el nivel del mar | datos mensuales

Fecha, hora, temperatura, viento dirección y velocidad, humedad y presión.

  • 16-08-2018 02:00:00 | 14.10°C | Nordeste |4.00 km/h | 88.00% | 0.00 hPa
  • 16-08-2018 01:00:00 | 14.70°C | Este |2.00 km/h | 88.00% | 0.00 hPa
  • 16-08-2018 00:00:00 | 15.30°C | Este |4.00 km/h | 86.00% | 0.00 hPa
  • 15-08-2018 23:00:00 | 15.50°C | Calma |0.00 km/h | 89.00% | 0.00 hPa
  • 15-08-2018 22:00:00 | 17.30°C | Calma |0.00 km/h | 83.00% | 0.00 hPa
  • 15-08-2018 21:00:00 | 19.70°C | Oeste |4.00 km/h | 72.00% | 0.00 hPa
  • 15-08-2018 20:00:00 | 22.50°C | Sudoeste |6.00 km/h | 57.00% | 0.00 hPa
  • 15-08-2018 19:00:00 | 24.90°C | Sudoeste |6.00 km/h | 49.00% | 0.00 hPa
  • 15-08-2018 18:00:00 | 26.10°C | Sudoeste |7.00 km/h | 42.00% | 0.00 hPa
  • 15-08-2018 17:00:00 | 26.30°C | Sudoeste |5.00 km/h | 39.00% | 0.00 hPa
  • 15-08-2018 16:00:00 | 26.70°C | Sudoeste |8.00 km/h | 39.00% | 0.00 hPa
  • 15-08-2018 15:00:00 | 26.70°C | Sudoeste |6.00 km/h | 39.00% | 0.00 hPa
  • 15-08-2018 14:00:00 | 25.90°C | Oeste |5.00 km/h | 39.00% | 0.00 hPa
  • 15-08-2018 13:00:00 | 23.80°C | Sudoeste |3.00 km/h | 42.00% | 0.00 hPa
  • 15-08-2018 12:00:00 | 21.50°C | Sudoeste |3.00 km/h | 50.00% | 0.00 hPa
  • 15-08-2018 11:00:00 | 18.60°C | Sudoeste |2.00 km/h | 59.00% | 0.00 hPa
  • 15-08-2018 10:00:00 | 13.80°C | Oeste |2.00 km/h | 80.00% | 0.00 hPa
  • 15-08-2018 09:00:00 | 11.00°C | Este |2.00 km/h | 82.00% | 0.00 hPa
  • 15-08-2018 08:00:00 | 9.10°C | Calma |0.00 km/h | 89.00% | 0.00 hPa
  • 15-08-2018 07:00:00 | 9.80°C | Este |5.00 km/h | 87.00% | 0.00 hPa
  • 15-08-2018 06:00:00 | 10.60°C | Este |6.00 km/h | 85.00% | 0.00 hPa
  • 15-08-2018 05:00:00 | 11.10°C | Nordeste |3.00 km/h | 88.00% | 0.00 hPa
  • 15-08-2018 04:00:00 | 12.70°C | Este |5.00 km/h | 78.00% | 0.00 hPa
  • 15-08-2018 03:00:00 | 12.70°C | Este |4.00 km/h | 79.00% | 0.00 hPa